Terminal Aerodrome Forecast
Issued by NWS Austin/San Antonio, TX

Home | Current Version | Previous Version | Text Only | Print | Product List | Glossary On
Versions: 1 2 3 4 5 6 7 8 9 10 11 12 13
000
FTUS44 KEWX 311735
TAFSAT
TAF
KSAT 311735Z 3118/0124 16009KT P6SM SCT040 BKN200
     FM010800 15005KT P6SM BKN015
     FM011400 15006KT P6SM BKN025
     FM011600 16006KT P6SM BKN050=

USA.gov is the U.S. government's official web portal to all federal, state and local government web resources and services.